createdAt,value
2019-04-01T00:08:51.924Z,0.0
2019-04-01T00:19:05.743Z,0.0
2019-04-01T00:29:17.023Z,0.0
2019-04-01T00:39:29.689Z,0.0
2019-04-01T00:49:43.574Z,0.0
2019-04-01T00:59:57.823Z,0.0
2019-04-01T01:10:10.166Z,0.0
2019-04-01T01:20:24.322Z,0.0
2019-04-01T01:30:38.175Z,0.0
2019-04-01T01:40:51.906Z,0.0
2019-04-01T01:52:06.880Z,0.0
2019-04-01T02:02:20.547Z,0.0
2019-04-01T02:12:34.862Z,0.0
2019-04-01T02:22:48.986Z,0.0
2019-04-01T02:33:02.566Z,0.0
2019-04-01T02:43:49.789Z,0.0
2019-04-01T02:54:01.545Z,0.0
2019-04-01T03:04:13.658Z,0.0
2019-04-01T03:14:59.555Z,0.0
2019-04-01T03:25:10.841Z,0.0
2019-04-01T03:35:57.422Z,0.0
2019-04-01T03:46:12.109Z,0.0
2019-04-01T03:57:01.786Z,0.0
2019-04-01T04:07:48.736Z,0.0
2019-04-01T04:18:40.127Z,0.0
2019-04-01T04:29:25.237Z,0.0
2019-04-01T04:40:11.887Z,4.0
2019-04-01T04:51:33.916Z,24.0
2019-04-01T05:01:45.920Z,112.0
2019-04-01T05:12:48.434Z,336.0
2019-04-01T05:23:00.866Z,660.0
2019-04-01T05:33:15.147Z,1044.0
2019-04-01T05:44:02.123Z,1448.0
2019-04-01T05:54:47.398Z,1808.0
2019-04-01T06:04:59.210Z,2124.0
2019-04-01T06:15:12.706Z,2420.0
2019-04-01T06:25:27.497Z,2692.0
2019-04-01T06:35:41.421Z,2964.0
2019-04-01T06:45:55.878Z,3260.0
2019-04-01T06:56:41.350Z,3644.0
2019-04-01T07:06:55.494Z,4164.0
2019-04-01T07:17:42.561Z,17504.0
2019-04-01T07:28:46.988Z,20352.0
2019-04-01T07:39:35.678Z,25248.0
2019-04-01T07:49:50.265Z,27456.0
2019-04-01T08:00:55.099Z,29728.0
2019-04-01T08:11:49.866Z,37152.0
2019-04-01T08:22:43.335Z,43296.0
2019-04-01T08:33:47.478Z,44192.0
2019-04-01T08:43:58.478Z,49088.0
2019-04-01T08:54:22.472Z,58848.0
2019-04-01T09:05:20.073Z,56352.0
2019-04-01T09:16:14.707Z,58336.0
2019-04-01T09:26:32.974Z,68032.0
2019-04-01T09:37:23.513Z,59040.0
2019-04-01T09:47:38.035Z,63008.0
2019-04-01T09:58:28.751Z,68128.0
2019-04-01T10:08:43.653Z,66976.0
2019-04-01T10:19:37.234Z,74880.0
2019-04-01T10:30:26.357Z,75744.0
2019-04-01T10:41:13.990Z,80768.0
2019-04-01T10:52:08.702Z,82368.0
2019-04-01T11:02:57.272Z,78560.0
2019-04-01T11:13:15.225Z,79520.0
2019-04-01T11:23:34.147Z,73952.0
2019-04-01T11:34:25.034Z,79616.0
2019-04-01T11:45:14.886Z,78048.0
2019-04-01T11:55:34.547Z,78976.0
2019-04-01T12:05:52.700Z,77376.0
2019-04-01T12:16:09.024Z,79680.0
2019-04-01T12:26:27.641Z,70976.0
2019-04-01T12:37:16.431Z,74752.0
2019-04-01T12:47:34.324Z,76320.0
2019-04-01T12:58:25.199Z,74208.0
2019-04-01T13:08:36.118Z,67552.0
2019-04-01T13:21:26.631Z,66784.0
2019-04-01T13:32:16.288Z,67072.0
2019-04-01T13:43:07.239Z,62272.0
2019-04-01T13:54:08.083Z,59872.0
2019-04-01T14:04:17.189Z,41536.0
2019-04-01T14:15:10.541Z,16032.0
2019-04-01T14:42:21.401Z,15520.0
2019-04-01T14:52:35.127Z,17664.0
2019-04-01T15:03:27.830Z,20224.0
2019-04-01T15:13:43.325Z,31968.0
2019-04-01T15:24:34.425Z,21664.0
2019-04-01T15:34:48.873Z,17216.0
2019-04-01T15:45:03.243Z,14144.0
2019-04-01T15:55:22.105Z,8336.0
2019-04-01T16:06:07.452Z,6556.0
2019-04-01T16:16:23.523Z,5016.0
2019-04-01T16:27:13.283Z,6260.0
2019-04-01T16:38:22.222Z,4988.0
2019-04-01T16:49:11.550Z,3244.0
2019-04-01T16:59:58.830Z,3644.0
2019-04-01T17:10:48.990Z,2268.0
2019-04-01T17:21:34.455Z,1788.0
2019-04-01T17:32:30.747Z,1324.0
2019-04-01T17:42:45.450Z,904.0
2019-04-01T17:53:38.136Z,492.0
2019-04-01T18:04:25.815Z,204.0
2019-04-01T18:16:01.361Z,52.0
2019-04-01T18:26:35.008Z,8.0
2019-04-01T18:39:48.097Z,0.0
2019-04-01T19:06:14.008Z,0.0
2019-04-01T19:18:32.356Z,0.0
2019-04-01T19:29:04.077Z,0.0
2019-04-01T19:40:20.520Z,0.0
2019-04-01T19:50:35.447Z,0.0
2019-04-01T20:00:49.380Z,0.0
2019-04-01T20:11:00.462Z,0.0
2019-04-01T20:21:54.431Z,0.0
2019-04-01T20:32:16.756Z,0.0
2019-04-01T20:42:57.667Z,0.0
2019-04-01T20:53:12.078Z,0.0
2019-04-01T21:03:26.249Z,0.0
2019-04-01T21:13:42.819Z,0.0
2019-04-01T21:23:59.813Z,0.0
2019-04-01T21:34:44.433Z,0.0
2019-04-01T21:44:58.934Z,0.0
2019-04-01T21:55:18.609Z,0.0
2019-04-01T22:06:03.699Z,0.0
2019-04-01T22:16:51.665Z,0.0
2019-04-01T22:27:39.307Z,0.0
2019-04-01T22:37:53.777Z,0.0
2019-04-01T22:48:07.663Z,0.0
2019-04-01T22:58:22.605Z,0.0
2019-04-01T23:08:36.262Z,0.0
2019-04-01T23:19:24.377Z,0.0
2019-04-01T23:29:39.556Z,0.0
2019-04-01T23:39:53.809Z,0.0
2019-04-01T23:50:09.040Z,0.0
